ELLX/LUX METAR and TAF weather

Enter ICAO airport designator
Station Type Date Time Source
ELLX METAR 2022/12/04 11:20 UTC NOAA

ELLX 041120Z 07008KT 050V110 9999 SCT006 OVC007 00/M01 Q1013 NOSIG


Station Type Date Time Source
ELLX Decoded METAR 2022/12/04 11:20 UTC NOAA

Luxembourg / Luxembourg, Luxembourg (ELLX) 49-37N 006-13E 379M
Dec 04, 2022 - 06:20 AM EST / 2022.12.04 1120 UTC
Wind: from the ENE (070 degrees) at 9 MPH (8 KT) (direction variable):0
Visibility: greater than 7 mile(s):0
Sky conditions: overcast
Temperature: 32 F (0 C)
Windchill: 24 F (-4 C):1
Dew Point: 30 F (-1 C)
Relative Humidity: 92%
Pressure (altimeter): 29.91 in. Hg (1013 hPa)
ob: ELLX 041120Z 07008KT 050V110 9999 SCT006 OVC007 00/M01 Q1013 NOSIG
cycle: 11

Station Type Date Time Source
ELLX TAF 2022/12/04 12:30 UTC NOAA

TAF ELLX 041100Z 0412/0518 07006KT 9999 OVC007
TEMPO 0416/0422 3500 -RASN BKN005 PROB30
TEMPO 0416/0420 -FZRA
BECMG 0500/0502 30004KT 3500 BR BKN006
TEMPO 0503/0514 1500 -DZSG BKN004

Example: see airport list